Time;durP1;ratioP1;P1;durP2;ratioP2;P2;SDS_P1;SDS_P2;PMS_P1;PMS_P2;Temp;Humidity;BMP_temperature;BMP_pressure;BME280_temperature;BME280_humidity;BME280_pressure;Samples;Min_cycle;Max_cycle;Signal;HPM_P1;HPM_P2
2022/08/03 00:01:02;;;;;;;3.38;0.98;;;;;;;18.51;68.48;94655.00;5126088;27;20201;-76
2022/08/03 00:03:30;;;;;;;2.05;1.27;;;;;;;18.48;67.95;94662.81;5124355;27;20270;-75
2022/08/03 00:05:56;;;;;;;3.63;1.20;;;;;;;18.29;68.54;94632.84;5132183;27;20601;-75
2022/08/03 00:08:24;;;;;;;0.77;0.77;;;;;;;18.41;69.16;94657.28;5119251;27;20736;-75
2022/08/03 00:10:50;;;;;;;0.90;0.90;;;;;;;18.41;69.74;94657.28;5131888;27;20550;-75
2022/08/03 00:13:18;;;;;;;1.13;0.93;;;;;;;18.32;69.93;94656.75;5132016;27;20727;-76
2022/08/03 00:15:47;;;;;;;1.58;1.00;;;;;;;18.30;70.22;94655.59;5119041;27;20224;-76
2022/08/03 00:18:17;;;;;;;1.80;1.30;;;;;;;18.23;69.34;94656.28;5132171;27;20197;-75
2022/08/03 00:20:47;;;;;;;2.28;1.50;;;;;;;18.27;70.01;94657.13;5132419;27;20201;-76
2022/08/03 00:23:14;;;;;;;1.52;1.13;;;;;;;18.18;70.71;94656.59;5132078;27;20238;-76
2022/08/03 00:25:41;;;;;;;2.88;1.23;;;;;;;18.17;70.19;94652.31;5132027;27;20617;-75
2022/08/03 00:28:11;;;;;;;5.55;1.45;;;;;;;18.24;69.50;94655.13;5131838;27;20616;-75
2022/08/03 00:30:38;;;;;;;5.60;1.23;;;;;;;18.24;69.89;94660.59;5132199;27;20204;-75
2022/08/03 00:33:05;;;;;;;1.40;1.10;;;;;;;18.23;70.49;94655.50;5132176;27;20201;-75
2022/08/03 00:35:32;;;;;;;2.35;1.20;;;;;;;18.21;69.87;94657.81;5131571;27;20228;-75
2022/08/03 00:38:00;;;;;;;1.40;1.15;;;;;;;18.20;70.66;94651.53;5131689;27;20277;-75
2022/08/03 00:40:27;;;;;;;1.05;0.95;;;;;;;18.22;70.81;94651.16;5131822;27;20273;-75
2022/08/03 00:42:55;;;;;;;2.40;1.00;;;;;;;18.15;71.49;94654.66;5131905;27;20204;-75
2022/08/03 00:45:25;;;;;;;0.80;0.80;;;;;;;18.10;71.02;94654.97;5129102;27;20266;-76
2022/08/03 00:47:52;;;;;;;1.73;0.95;;;;;;;18.09;70.46;94656.13;5128429;27;20648;-76
2022/08/03 00:50:21;;;;;;;1.42;1.20;;;;;;;18.03;71.09;94646.66;5131156;27;20242;-76
2022/08/03 00:52:49;;;;;;;1.40;1.15;;;;;;;18.01;71.12;94651.75;5130723;27;20315;-75
2022/08/03 00:55:17;;;;;;;1.20;0.95;;;;;;;18.04;70.32;94648.25;5131176;27;20292;-76
2022/08/03 00:57:44;;;;;;;1.58;1.10;;;;;;;18.01;70.39;94654.47;5131152;27;20228;-76
2022/08/03 01:00:13;;;;;;;1.58;1.00;;;;;;;18.03;70.02;94652.16;5131756;27;20201;-76
2022/08/03 01:02:40;;;;;;;1.00;0.90;;;;;;;18.06;70.49;94648.66;5131226;27;20366;-76
2022/08/03 01:05:08;;;;;;;1.30;1.10;;;;;;;18.06;70.22;94648.66;5131371;27;20288;-76
2022/08/03 01:07:46;;;;;;;5.30;1.00;;;;;;;18.06;70.75;94640.41;5131321;27;20220;-76
2022/08/03 01:10:24;;;;;;;1.00;0.68;;;;;;;18.02;70.66;94645.09;5131218;27;20242;-76
2022/08/03 01:12:59;;;;;;;0.98;0.82;;;;;;;18.01;70.58;94643.50;5131082;28;20281;-76
2022/08/03 01:15:35;;;;;;;1.92;1.20;;;;;;;17.95;71.12;94639.50;5131791;28;20284;-76
2022/08/03 01:18:08;;;;;;;1.10;1.00;;;;;;;17.96;70.24;94638.34;5131610;28;20188;-76
2022/08/03 01:20:38;;;;;;;1.77;1.10;;;;;;;17.92;70.02;94632.03;5131374;28;20597;-76
2022/08/03 01:23:35;;;;;;;0.93;0.90;;;;;;;17.89;69.80;94633.59;5131124;28;20639;-76
2022/08/03 01:26:26;;;;;;;1.10;1.00;;;;;;;17.79;70.40;94630.69;5131174;28;20193;-76
2022/08/03 01:29:06;;;;;;;1.13;1.00;;;;;;;17.81;69.76;94633.84;5118595;28;20189;-76
2022/08/03 01:31:39;;;;;;;1.13;1.00;;;;;;;17.74;69.75;94635.38;5131761;28;20197;-77
2022/08/03 01:34:09;;;;;;;1.00;0.85;;;;;;;17.83;69.83;94642.50;5131277;28;20716;-76
2022/08/03 01:36:40;;;;;;;1.40;1.10;;;;;;;17.71;70.15;94641.59;5131229;28;20644;-76
2022/08/03 01:39:10;;;;;;;1.33;1.10;;;;;;;17.46;70.83;94648.66;5131038;28;20532;-76
2022/08/03 01:41:44;;;;;;;2.08;1.38;;;;;;;17.53;70.53;94629.56;5131185;28;20197;-76
2022/08/03 01:44:13;;;;;;;1.08;0.90;;;;;;;17.54;70.69;94636.63;5131377;28;20597;-76
2022/08/03 01:46:42;;;;;;;1.88;1.30;;;;;;;17.50;71.01;94643.22;5123823;28;20237;-76
2022/08/03 01:49:12;;;;;;;1.75;1.20;;;;;;;17.46;71.60;94648.66;5124630;28;20570;-76
2022/08/03 01:51:41;;;;;;;3.22;1.27;;;;;;;17.29;72.25;94643.72;5110853;28;20205;-76
2022/08/03 01:54:13;;;;;;;1.05;0.80;;;;;;;17.29;72.96;94646.47;5127189;27;20605;-76
2022/08/03 01:56:45;;;;;;;2.15;1.10;;;;;;;17.24;73.04;94644.03;5124287;27;20228;-76
2022/08/03 01:59:14;;;;;;;3.20;1.30;;;;;;;17.29;73.01;94647.25;5120927;27;20218;-76
2022/08/03 02:01:46;;;;;;;1.05;0.95;;;;;;;17.36;72.25;94654.75;5123759;27;20202;-74
2022/08/03 02:04:14;;;;;;;1.42;1.20;;;;;;;17.38;72.67;94655.19;5133762;27;20544;-75
2022/08/03 02:06:43;;;;;;;1.83;1.50;;;;;;;17.43;72.32;94646.66;5134890;27;20284;-75
2022/08/03 02:09:12;;;;;;;1.75;1.20;;;;;;;17.44;72.49;94652.94;5134548;27;20716;-75
2022/08/03 02:11:39;;;;;;;2.13;1.42;;;;;;;17.41;72.64;94652.50;5134497;27;20285;-75
2022/08/03 02:14:06;;;;;;;1.92;1.40;;;;;;;17.39;72.38;94645.81;5128786;27;20197;-75
2022/08/03 02:16:34;;;;;;;1.17;1.00;;;;;;;17.41;72.14;94643.50;5134507;27;20585;-75
2022/08/03 02:19:06;;;;;;;1.27;1.17;;;;;;;17.42;72.82;94645.09;5134981;27;20239;-75
2022/08/03 02:21:37;;;;;;;4.82;1.38;;;;;;;17.41;72.48;94638.81;5134433;27;20220;-75
2022/08/03 02:24:05;;;;;;;1.42;1.33;;;;;;;17.33;73.01;94648.09;5134256;27;20234;-74
2022/08/03 02:26:33;;;;;;;2.15;1.30;;;;;;;17.34;72.69;94637.94;5134385;27;20201;-75
2022/08/03 02:29:05;;;;;;;2.00;1.33;;;;;;;17.27;73.29;94640.56;5134256;27;20719;-75
2022/08/03 02:31:36;;;;;;;2.35;1.50;;;;;;;17.26;72.97;94641.72;5134286;27;20597;-74
2022/08/03 02:34:12;;;;;;;1.58;1.02;;;;;;;17.31;73.17;94638.66;5134633;27;20719;-74
2022/08/03 02:36:40;;;;;;;1.33;1.00;;;;;;;17.40;73.14;94630.97;5134450;27;20758;-74
2022/08/03 02:39:13;;;;;;;1.15;1.00;;;;;;;17.25;73.51;94640.94;5134540;27;20257;-75
2022/08/03 02:41:45;;;;;;;1.60;1.20;;;;;;;17.22;73.86;94638.91;5134467;27;20203;-75
2022/08/03 02:44:13;;;;;;;1.40;1.10;;;;;;;17.18;74.24;94634.56;5134704;27;20581;-75
2022/08/03 02:46:44;;;;;;;1.17;0.88;;;;;;;17.21;74.58;94642.06;5126895;27;20190;-76
2022/08/03 02:49:15;;;;;;;4.72;1.60;;;;;;;17.17;74.55;94633.00;5127636;27;20200;-76
2022/08/03 02:51:43;;;;;;;2.47;1.52;;;;;;;17.10;74.63;94638.34;5122097;27;20242;-75
2022/08/03 02:54:11;;;;;;;1.77;1.45;;;;;;;16.98;74.83;94637.41;5119876;27;20765;-75
2022/08/03 02:56:41;;;;;;;2.45;1.42;;;;;;;16.95;74.81;94640.88;5133230;27;20723;-75
2022/08/03 02:59:09;;;;;;;1.58;1.30;;;;;;;16.99;74.89;94643.66;5120317;27;20193;-75
2022/08/03 03:01:38;;;;;;;3.15;1.52;;;;;;;16.99;75.52;94647.19;5122445;27;20202;-76
2022/08/03 03:04:06;;;;;;;1.35;1.20;;;;;;;17.07;75.40;94642.63;5126372;27;20202;-75
2022/08/03 03:06:36;;;;;;;1.90;1.20;;;;;;;17.01;75.39;94638.63;5124195;27;20233;-75
2022/08/03 03:09:03;;;;;;;1.88;1.58;;;;;;;17.01;75.75;94646.81;5119823;27;20249;-74
2022/08/03 03:11:30;;;;;;;1.20;1.10;;;;;;;16.97;75.97;94654.97;5132703;27;20236;-75
2022/08/03 03:14:00;;;;;;;1.65;1.15;;;;;;;16.93;76.39;94656.88;5125289;27;20201;-75
2022/08/03 03:16:29;;;;;;;1.45;1.17;;;;;;;16.85;76.09;94665.31;5133519;27;20213;-75
2022/08/03 03:18:58;;;;;;;2.15;1.40;;;;;;;16.90;76.21;94671.28;5133325;27;20336;-75
2022/08/03 03:21:26;;;;;;;1.88;1.27;;;;;;;16.95;75.96;94675.66;5133127;27;20193;-75
2022/08/03 03:23:59;;;;;;;3.20;1.40;;;;;;;16.94;76.08;94669.41;5133076;27;20197;-76
2022/08/03 03:26:26;;;;;;;1.73;1.40;;;;;;;17.08;75.09;94674.31;5132888;27;20209;-76
2022/08/03 03:28:53;;;;;;;3.85;1.08;;;;;;;17.16;75.17;94672.47;5133418;27;20237;-76
2022/08/03 03:31:20;;;;;;;1.83;1.40;;;;;;;17.29;74.54;94682.06;5132447;27;20200;-76
2022/08/03 03:33:48;;;;;;;2.42;1.55;;;;;;;17.52;74.33;94677.28;5124488;27;20209;-75
2022/08/03 03:36:15;;;;;;;2.70;1.88;;;;;;;18.02;73.45;94683.47;5125812;27;20231;-75
2022/08/03 03:38:41;;;;;;;1.73;1.20;;;;;;;18.69;71.43;94672.47;5121487;27;20213;-76
2022/08/03 03:41:10;;;;;;;1.60;1.48;;;;;;;19.30;68.79;94670.97;5130452;27;20262;-76
2022/08/03 03:43:40;;;;;;;2.20;1.48;;;;;;;19.54;67.61;94666.88;5122489;27;20269;-75
2022/08/03 03:46:07;;;;;;;2.10;1.40;;;;;;;20.11;66.40;94663.19;5119253;27;20273;-75
2022/08/03 03:48:34;;;;;;;2.13;1.60;;;;;;;20.81;64.18;94664.59;5122285;27;20683;-75
2022/08/03 03:51:01;;;;;;;3.80;2.10;;;;;;;21.33;61.79;94666.97;5125731;27;20201;-74
2022/08/03 03:53:28;;;;;;;2.97;2.50;;;;;;;21.76;60.41;94671.22;5122500;27;20205;-75
2022/08/03 03:55:55;;;;;;;4.43;2.88;;;;;;;22.37;58.32;94663.56;5128457;27;20229;-77
2022/08/03 03:58:23;;;;;;;4.03;2.58;;;;;;;22.57;57.33;94670.13;5122950;27;20261;-76
2022/08/03 04:00:52;;;;;;;4.82;2.97;;;;;;;23.32;55.64;94664.91;5118901;27;20655;-77
2022/08/03 04:03:19;;;;;;;5.32;2.22;;;;;;;24.08;53.32;94655.44;5131989;27;20209;-76
2022/08/03 04:11:20;;;;;;;3.60;2.72;;;;;;;25.88;48.09;94655.97;5131846;27;20313;-74
2022/08/03 04:13:55;;;;;;;3.28;2.88;;;;;;;26.56;45.47;94655.41;5119838;27;20231;-77
2022/08/03 04:16:29;;;;;;;7.95;2.65;;;;;;;26.79;45.26;94641.41;5125384;27;20623;-77
2022/08/03 04:19:02;;;;;;;4.18;2.47;;;;;;;27.85;43.44;94648.41;5130333;27;20205;-76
2022/08/03 04:21:30;;;;;;;3.13;2.65;;;;;;;27.73;43.70;94640.78;5131369;27;20212;-76
2022/08/03 04:24:03;;;;;;;3.63;2.45;;;;;;;28.47;42.00;94643.50;5124000;27;20225;-76
2022/08/03 04:26:34;;;;;;;3.20;2.15;;;;;;;28.92;41.03;94641.38;5124423;27;20197;-77
2022/08/03 04:29:06;;;;;;;6.10;2.58;;;;;;;28.76;41.03;94646.25;5120111;27;20664;-77
2022/08/03 04:31:41;;;;;;;3.05;2.28;;;;;;;28.62;41.49;94653.03;5127307;27;20202;-77
2022/08/03 04:34:08;;;;;;;3.22;2.38;;;;;;;28.38;42.01;94651.75;5121795;27;20200;-77
2022/08/03 04:36:46;;;;;;;4.85;2.55;;;;;;;28.66;41.45;94648.13;5131097;27;20232;-77
2022/08/03 04:39:18;;;;;;;5.28;2.72;;;;;;;29.17;40.45;94645.38;5117366;27;20221;-77
2022/08/03 04:41:46;;;;;;;2.85;2.20;;;;;;;29.26;39.70;94648.28;5110139;28;20235;-77
2022/08/03 04:44:16;;;;;;;4.38;2.50;;;;;;;29.88;38.94;94657.03;5124786;27;20686;-77
2022/08/03 04:46:43;;;;;;;3.67;2.53;;;;;;;30.58;37.44;94650.16;5130858;27;20313;-77
2022/08/03 04:49:12;;;;;;;3.45;2.53;;;;;;;30.79;37.42;94660.53;5128603;27;20201;-77
2022/08/03 04:51:42;;;;;;;2.63;2.20;;;;;;;29.07;40.00;94668.84;5119405;27;20201;-78
2022/08/03 04:54:12;;;;;;;3.75;2.10;;;;;;;28.58;41.42;94671.84;5116808;27;20297;-76
2022/08/03 04:56:40;;;;;;;2.72;2.30;;;;;;;28.79;41.05;94671.28;5125408;27;20691;-77
2022/08/03 04:59:07;;;;;;;5.95;2.10;;;;;;;28.49;41.34;94671.72;5122774;27;20198;-77
2022/08/03 05:01:35;;;;;;;3.47;2.20;;;;;;;28.70;41.00;94673.88;5117032;27;20603;-77
2022/08/03 05:04:02;;;;;;;2.38;2.15;;;;;;;29.55;39.58;94676.84;5123677;27;20204;-77
2022/08/03 05:06:30;;;;;;;2.92;2.17;;;;;;;28.70;40.93;94682.25;5121231;27;20269;-77
2022/08/03 05:08:57;;;;;;;3.28;2.53;;;;;;;30.19;38.29;94669.13;5116881;27;20242;-77
2022/08/03 05:11:23;;;;;;;3.47;2.15;;;;;;;31.30;37.16;94671.38;5130247;27;20237;-77
2022/08/03 05:13:53;;;;;;;2.17;1.83;;;;;;;31.23;36.42;94668.88;5124029;27;20743;-77
2022/08/03 05:16:20;;;;;;;2.22;2.03;;;;;;;31.27;36.33;94683.50;5131041;28;20232;-77
2022/08/03 05:18:50;;;;;;;3.10;2.25;;;;;;;32.11;35.07;94679.25;5130500;28;20201;-77
2022/08/03 05:21:21;;;;;;;5.47;2.58;;;;;;;32.52;33.79;94691.09;5130893;28;20284;-77
2022/08/03 05:23:48;;;;;;;3.13;2.25;;;;;;;32.53;33.74;94694.69;5130719;28;20651;-78
2022/08/03 05:26:15;;;;;;;2.22;2.03;;;;;;;31.85;34.87;94688.34;5130438;27;20307;-78
2022/08/03 05:28:43;;;;;;;4.93;2.08;;;;;;;31.80;35.24;94698.19;5121103;27;20209;-78
2022/08/03 05:31:12;;;;;;;2.00;1.80;;;;;;;33.00;33.52;94692.13;5134556;27;20201;-79
2022/08/03 05:33:38;;;;;;;2.67;2.25;;;;;;;33.45;33.19;94693.25;5134248;27;20618;-77
2022/08/03 05:36:07;;;;;;;5.50;2.80;;;;;;;32.96;33.21;94702.75;5134213;27;20266;-78
2022/08/03 05:38:35;;;;;;;4.88;2.40;;;;;;;32.95;33.55;94706.00;5134483;27;20204;-77
2022/08/03 05:41:02;;;;;;;4.28;3.15;;;;;;;32.17;34.31;94706.63;5134310;27;20286;-79
2022/08/03 05:43:30;;;;;;;3.85;2.30;;;;;;;31.38;35.70;94709.06;5133989;27;20562;-78
2022/08/03 05:46:00;;;;;;;3.92;2.65;;;;;;;32.81;33.56;94702.59;5131954;27;20224;-77
2022/08/03 05:48:27;;;;;;;2.60;2.40;;;;;;;31.69;34.85;94698.63;5123099;27;20201;-77
2022/08/03 05:50:54;;;;;;;2.90;2.58;;;;;;;31.11;36.12;94709.72;5134171;27;20556;-77
2022/08/03 05:53:22;;;;;;;3.30;2.33;;;;;;;31.79;35.15;94702.22;5124227;27;20233;-78
2022/08/03 05:55:49;;;;;;;3.03;2.45;;;;;;;32.18;34.35;94706.16;5129969;27;20931;-78
2022/08/03 05:58:16;;;;;;;3.05;2.20;;;;;;;32.67;34.04;94714.44;5134004;27;20231;-78
2022/08/03 06:00:43;;;;;;;5.80;2.70;;;;;;;33.02;32.62;94712.09;5130449;27;20205;-79
2022/08/03 06:03:09;;;;;;;3.10;2.45;;;;;;;33.92;31.83;94697.41;5123594;27;20273;-79
2022/08/03 06:05:37;;;;;;;3.03;2.15;;;;;;;34.25;30.78;94700.94;5119853;27;20699;-79
2022/08/03 06:08:05;;;;;;;2.80;2.30;;;;;;;34.26;31.17;94710.94;5123861;27;20296;-79
2022/08/03 06:10:33;;;;;;;4.57;2.63;;;;;;;32.89;33.27;94719.13;5130869;27;20225;-80
2022/08/03 06:13:00;;;;;;;4.65;2.55;;;;;;;33.13;32.48;94715.19;5130013;27;20201;-78
2022/08/03 06:15:27;;;;;;;3.25;2.42;;;;;;;33.82;31.79;94717.13;5134109;27;20197;-79
2022/08/03 06:17:56;;;;;;;4.63;2.25;;;;;;;34.53;30.83;94707.94;5134415;27;20723;-79
2022/08/03 06:20:22;;;;;;;4.35;2.40;;;;;;;33.67;31.63;94707.81;5134196;27;20201;-79
2022/08/03 06:22:51;;;;;;;3.60;2.35;;;;;;;34.11;31.54;94710.09;5134046;27;20536;-78
2022/08/03 06:25:19;;;;;;;4.90;2.15;;;;;;;33.92;31.81;94714.28;5134085;27;20245;-79
2022/08/03 06:27:47;;;;;;;3.80;1.88;;;;;;;33.67;31.26;94710.63;5134156;27;20200;-81
2022/08/03 06:30:15;;;;;;;2.17;1.98;;;;;;;32.81;32.61;94719.44;5133527;27;20582;-78
2022/08/03 06:32:42;;;;;;;4.35;2.30;;;;;;;34.05;31.02;94712.00;5133054;27;20208;-79
2022/08/03 06:35:12;;;;;;;4.13;2.55;;;;;;;34.09;30.54;94707.75;5133559;27;20631;-77
2022/08/03 06:37:43;;;;;;;4.53;2.58;;;;;;;34.65;30.23;94710.97;5132952;27;20285;-79
2022/08/03 06:40:13;;;;;;;2.40;2.20;;;;;;;33.79;31.05;94712.47;5132088;27;20208;-79
2022/08/03 06:42:41;;;;;;;3.75;2.22;;;;;;;35.33;29.31;94708.13;5132988;27;20212;-79
2022/08/03 06:45:10;;;;;;;3.53;2.13;;;;;;;35.81;28.57;94706.59;5133310;27;20197;-79
2022/08/03 06:47:40;;;;;;;3.67;2.30;;;;;;;36.31;28.19;94701.69;5119298;27;20210;-78
2022/08/03 06:50:09;;;;;;;3.35;2.08;;;;;;;35.93;28.52;94701.91;5124393;27;20194;-79
2022/08/03 06:52:37;;;;;;;2.67;2.08;;;;;;;35.66;28.92;94697.41;5126170;27;20674;-79
2022/08/03 06:55:05;;;;;;;7.03;2.85;;;;;;;36.05;28.56;94697.97;5122496;27;20221;-78
2022/08/03 06:57:32;;;;;;;2.40;2.00;;;;;;;35.89;28.93;94702.13;5119290;27;20240;-79
2022/08/03 07:00:00;;;;;;;2.30;2.10;;;;;;;32.90;32.53;94718.69;5133208;27;20200;-79
2022/08/03 07:02:30;;;;;;;3.55;2.42;;;;;;;33.11;33.01;94714.09;5132749;27;20201;-78
2022/08/03 07:04:57;;;;;;;3.92;2.55;;;;;;;33.31;32.38;94716.41;5133063;27;20699;-78
2022/08/03 07:07:24;;;;;;;2.92;2.63;;;;;;;33.68;31.82;94705.78;5129242;27;20201;-78
2022/08/03 07:09:51;;;;;;;2.72;2.40;;;;;;;34.87;30.61;94697.31;5123190;27;20216;-78
2022/08/03 07:12:18;;;;;;;4.28;2.70;;;;;;;33.38;33.19;94713.25;5118776;27;20233;-78
2022/08/03 07:14:44;;;;;;;3.90;2.63;;;;;;;34.02;33.05;94704.53;5133128;27;20258;-75
2022/08/03 07:17:11;;;;;;;3.35;2.63;;;;;;;32.33;34.29;94712.75;5132947;27;20228;-78
2022/08/03 07:19:39;;;;;;;3.15;2.53;;;;;;;33.44;32.76;94708.56;5133148;27;20197;-78
2022/08/03 07:22:07;;;;;;;2.58;2.15;;;;;;;33.06;33.50;94712.72;5132747;27;20214;-75
2022/08/03 07:24:34;;;;;;;4.03;2.90;;;;;;;32.22;33.79;94712.44;5132394;27;20659;-76
2022/08/03 07:27:01;;;;;;;2.88;2.40;;;;;;;32.48;33.19;94705.28;5112187;28;20205;-78
2022/08/03 07:29:28;;;;;;;5.65;2.25;;;;;;;33.97;31.96;94710.81;5125556;27;20549;-79
2022/08/03 07:31:55;;;;;;;4.70;2.65;;;;;;;33.55;31.37;94711.63;5132147;27;20667;-78
2022/08/03 07:34:22;;;;;;;2.75;2.33;;;;;;;34.21;31.13;94708.78;5132017;27;20288;-79
2022/08/03 07:36:50;;;;;;;2.75;2.20;;;;;;;34.76;29.70;94702.72;5118592;27;20232;-78
2022/08/03 07:39:17;;;;;;;5.22;2.90;;;;;;;32.97;31.21;94715.53;5131986;27;21013;-80
2022/08/03 07:41:44;;;;;;;3.92;2.60;;;;;;;32.78;32.36;94719.63;5124552;27;20544;-78
2022/08/03 07:44:10;;;;;;;6.05;2.50;;;;;;;32.33;32.53;94717.59;5124960;27;20667;-76
2022/08/03 07:46:39;;;;;;;3.70;2.30;;;;;;;32.58;32.94;94716.50;5116281;27;20258;-77
2022/08/03 07:49:09;;;;;;;3.80;2.80;;;;;;;32.86;32.49;94715.25;5126700;27;20208;-79
2022/08/03 07:51:37;;;;;;;5.78;2.70;;;;;;;32.70;32.40;94716.31;5130811;27;20724;-76
2022/08/03 07:54:06;;;;;;;2.83;2.30;;;;;;;32.25;33.97;94716.34;5131493;27;20699;-75
2022/08/03 07:56:35;;;;;;;2.70;2.35;;;;;;;31.82;34.27;94718.13;5131722;27;20201;-75
2022/08/03 07:59:02;;;;;;;4.18;2.70;;;;;;;29.99;36.50;94736.47;5131483;27;20655;-74
2022/08/03 08:01:31;;;;;;;3.72;2.38;;;;;;;30.32;35.39;94728.56;5131640;27;20328;-78
2022/08/03 08:03:58;;;;;;;3.33;2.42;;;;;;;30.24;36.39;94715.28;5131217;27;20302;-76
2022/08/03 08:06:24;;;;;;;4.38;2.53;;;;;;;31.14;34.41;94716.44;5131932;27;20212;-76
2022/08/03 08:08:51;;;;;;;4.10;2.15;;;;;;;30.33;35.70;94729.34;5131434;27;20197;-75
2022/08/03 08:11:21;;;;;;;3.85;2.47;;;;;;;30.33;35.01;94730.13;5131392;27;20228;-75
2022/08/03 08:13:47;;;;;;;3.35;2.25;;;;;;;31.22;34.15;94715.69;5124108;27;20265;-77
2022/08/03 08:16:14;;;;;;;3.38;2.00;;;;;;;31.26;33.44;94723.94;5131830;27;20609;-74
2022/08/03 08:18:41;;;;;;;2.38;2.15;;;;;;;30.05;35.45;94731.09;5131780;27;20278;-75
2022/08/03 08:21:09;;;;;;;2.75;1.95;;;;;;;30.13;34.83;94726.03;5131594;27;20253;-74
2022/08/03 08:23:35;;;;;;;3.40;2.05;;;;;;;30.13;35.13;94726.03;5131682;27;20720;-77
2022/08/03 08:26:05;;;;;;;3.45;1.80;;;;;;;29.99;35.90;94730.88;5131194;27;20266;-76
2022/08/03 08:28:33;;;;;;;3.33;1.75;;;;;;;29.69;35.26;94729.44;5130914;27;20205;-75
2022/08/03 08:31:00;;;;;;;5.00;2.30;;;;;;;29.95;35.56;94726.59;5131076;27;20201;-75
2022/08/03 08:33:27;;;;;;;2.83;2.20;;;;;;;30.53;34.33;94726.22;5130530;27;20261;-75
2022/08/03 08:35:54;;;;;;;2.45;1.90;;;;;;;30.58;34.59;94723.66;5130147;27;20702;-75
2022/08/03 08:38:21;;;;;;;2.17;1.70;;;;;;;31.15;33.96;94718.00;5130191;27;21071;-76
2022/08/03 08:40:49;;;;;;;2.58;2.00;;;;;;;30.60;33.86;94720.41;5130383;27;20234;-74
2022/08/03 08:43:16;;;;;;;2.30;1.67;;;;;;;30.35;34.72;94718.47;5130007;27;20262;-76
2022/08/03 08:45:48;;;;;;;3.85;2.35;;;;;;;30.67;34.69;94717.34;5130455;27;20201;-80
2022/08/03 08:48:18;;;;;;;3.95;2.40;;;;;;;30.20;35.95;94717.44;5116837;27;20655;-76
2022/08/03 08:50:47;;;;;;;2.97;2.50;;;;;;;31.07;34.26;94714.63;5129806;27;20265;-75
2022/08/03 08:53:14;;;;;;;2.50;2.03;;;;;;;30.88;34.36;94719.38;5129458;27;20602;-75
2022/08/03 08:55:41;;;;;;;3.00;1.80;;;;;;;30.47;34.82;94711.28;5129750;27;20267;-76
2022/08/03 08:58:11;;;;;;;4.15;2.33;;;;;;;30.78;33.71;94703.75;5129702;27;20228;-75
2022/08/03 09:00:38;;;;;;;2.47;1.98;;;;;;;31.49;33.68;94705.81;5130058;27;20852;-76
2022/08/03 09:03:07;;;;;;;3.30;1.67;;;;;;;31.30;33.35;94707.78;5129634;27;20193;-76
2022/08/03 09:05:34;;;;;;;3.20;2.00;;;;;;;31.15;33.79;94698.41;5129360;27;20696;-75
2022/08/03 09:08:04;;;;;;;3.53;2.30;;;;;;;31.24;34.27;94706.81;5130155;27;20752;-75
2022/08/03 09:10:31;;;;;;;5.20;2.25;;;;;;;30.31;35.33;94709.44;5129985;27;20225;-76
2022/08/03 09:12:59;;;;;;;2.42;1.90;;;;;;;30.64;33.76;94704.25;5124450;27;20197;-75
2022/08/03 09:15:30;;;;;;;3.58;2.53;;;;;;;30.50;35.39;94701.97;5114224;28;20208;-77
2022/08/03 09:17:59;;;;;;;2.72;1.50;;;;;;;30.44;34.30;94701.00;5130102;28;20216;-76
2022/08/03 09:20:32;;;;;;;1.80;1.70;;;;;;;29.92;34.74;94694.00;5130318;28;20223;-75
2022/08/03 09:23:02;;;;;;;2.13;1.75;;;;;;;29.79;35.08;94705.22;5130534;28;20257;-78
2022/08/03 09:25:31;;;;;;;2.30;1.85;;;;;;;30.63;34.59;94697.09;5116359;28;20250;-80
2022/08/03 09:28:10;;;;;;;2.58;1.95;;;;;;;31.28;33.54;94690.69;5129936;28;20201;-74
2022/08/03 09:30:40;;;;;;;2.72;1.88;;;;;;;31.27;33.28;94695.50;5129786;28;20212;-77
2022/08/03 09:33:10;;;;;;;3.25;1.80;;;;;;;30.91;33.88;94690.44;5130158;28;20215;-75
2022/08/03 09:35:46;;;;;;;5.07;1.85;;;;;;;30.70;34.33;94691.25;5129830;28;20254;-77
2022/08/03 09:38:14;;;;;;;2.90;1.80;;;;;;;31.09;33.64;94693.38;5129249;28;20228;-77
2022/08/03 09:40:41;;;;;;;2.38;1.73;;;;;;;31.03;33.36;94700.78;5130005;28;20204;-78
2022/08/03 09:43:09;;;;;;;2.83;2.35;;;;;;;31.54;32.40;94697.63;5129572;28;20201;-77
2022/08/03 09:45:37;;;;;;;2.15;1.58;;;;;;;32.71;31.43;94692.63;5129109;28;20204;-79
2022/08/03 09:48:26;;;;;;;1.98;1.60;;;;;;;32.79;30.89;94687.50;5129675;28;20213;-78
2022/08/03 09:50:56;;;;;;;3.40;1.90;;;;;;;31.52;32.07;94690.91;5129254;28;20200;-77
2022/08/03 09:53:24;;;;;;;1.67;1.58;;;;;;;30.70;34.18;94696.84;5129685;27;20219;-74
2022/08/03 09:55:55;;;;;;;1.65;1.48;;;;;;;30.12;35.33;94697.31;5128814;28;20641;-75
2022/08/03 09:58:23;;;;;;;1.70;1.55;;;;;;;30.00;34.36;94686.97;5128869;28;20934;-78
2022/08/03 10:00:54;;;;;;;1.75;1.58;;;;;;;30.60;33.38;94687.63;5129140;28;20221;-78
2022/08/03 10:03:21;;;;;;;1.83;1.45;;;;;;;31.00;32.53;94684.91;5129311;28;20208;-77
2022/08/03 10:05:48;;;;;;;1.50;1.40;;;;;;;31.16;32.81;94688.75;5129375;28;20213;-76
2022/08/03 10:08:18;;;;;;;1.80;1.60;;;;;;;30.97;31.93;94683.03;5128723;28;20262;-77
2022/08/03 10:10:47;;;;;;;1.85;1.70;;;;;;;31.01;32.24;94672.50;5129402;28;20232;-77
2022/08/03 10:13:17;;;;;;;1.95;1.85;;;;;;;31.78;30.93;94675.44;5129806;27;20411;-78
2022/08/03 10:15:46;;;;;;;2.55;1.70;;;;;;;31.21;32.32;94679.75;5120022;27;20201;-72
2022/08/03 10:18:17;;;;;;;1.80;1.70;;;;;;;30.75;32.91;94668.31;5133209;27;20224;-78
2022/08/03 10:20:49;;;;;;;1.80;1.60;;;;;;;30.32;33.43;94677.47;5133505;27;20201;-76
2022/08/03 10:23:18;;;;;;;2.50;1.90;;;;;;;29.59;34.50;94677.53;5133364;27;20189;-80
2022/08/03 10:25:53;;;;;;;1.70;1.60;;;;;;;28.62;35.67;94689.28;5125712;27;20201;-81
2022/08/03 10:28:22;;;;;;;2.42;1.70;;;;;;;28.61;37.75;94688.47;5119164;27;20189;-79
2022/08/03 10:30:52;;;;;;;2.08;1.65;;;;;;;29.02;36.05;94672.16;5117687;27;20295;-79
2022/08/03 10:33:21;;;;;;;1.92;1.52;;;;;;;29.16;36.35;94682.88;5121417;27;20205;-79
2022/08/03 10:35:55;;;;;;;1.95;1.60;;;;;;;29.59;35.32;94674.75;5121517;27;20333;-78
2022/08/03 10:38:31;;;;;;;2.00;1.80;;;;;;;29.91;35.67;94661.72;5123461;27;20209;-79
2022/08/03 10:40:59;;;;;;;2.10;1.85;;;;;;;29.87;34.37;94663.84;5128142;27;20205;-79
2022/08/03 10:43:28;;;;;;;1.98;1.77;;;;;;;30.45;33.78;94657.81;5123761;27;20267;-78
2022/08/03 10:45:56;;;;;;;1.90;1.63;;;;;;;29.98;35.15;94658.69;5124352;27;20219;-79
2022/08/03 10:48:27;;;;;;;2.28;1.50;;;;;;;29.54;35.18;94658.53;5124148;27;20242;-79
2022/08/03 10:50:54;;;;;;;2.20;1.63;;;;;;;29.10;36.53;94659.59;5126403;27;20204;-77
2022/08/03 10:53:36;;;;;;;5.32;1.95;;;;;;;29.62;35.01;94664.69;5122668;27;20610;-80
2022/08/03 10:58:50;;;;;;;2.78;2.00;;;;;;;29.84;34.91;94654.34;5120378;27;20262;-76
2022/08/03 11:01:18;;;;;;;2.30;1.60;;;;;;;29.44;35.83;94662.47;5122730;27;20196;-74
2022/08/03 11:04:17;;;;;;;2.03;1.50;;;;;;;29.07;37.51;94657.69;5117579;27;20850;-78
2022/08/03 11:06:45;;;;;;;1.60;1.50;;;;;;;29.38;35.95;94650.31;5123995;27;20232;-79
2022/08/03 11:09:18;;;;;;;2.92;1.80;;;;;;;29.32;35.72;94661.22;5131374;27;20208;-78
2022/08/03 11:11:47;;;;;;;4.88;1.70;;;;;;;29.12;36.57;94648.72;5133143;27;20237;-78
2022/08/03 11:14:17;;;;;;;3.47;1.70;;;;;;;29.14;36.70;94646.28;5133366;27;20197;-78
2022/08/03 11:16:46;;;;;;;2.28;1.92;;;;;;;29.48;36.50;94648.41;5133429;27;20246;-77
2022/08/03 11:19:21;;;;;;;4.13;1.85;;;;;;;29.17;36.60;94639.81;5132818;27;20226;-79
2022/08/03 11:21:53;;;;;;;1.98;1.70;;;;;;;28.97;36.28;94635.22;5132676;27;20249;-76
2022/08/03 11:24:58;;;;;;;2.55;1.83;;;;;;;29.21;34.63;94634.91;5132292;27;20201;-78
2022/08/03 11:27:30;;;;;;;1.98;1.88;;;;;;;29.21;33.52;94632.09;5086296;27;20245;-75
2022/08/03 11:30:03;;;;;;;2.60;2.08;;;;;;;29.67;34.75;94623.00;5128820;27;20204;-77
2022/08/03 11:32:55;;;;;;;2.58;1.65;;;;;;;30.01;33.91;94624.25;5127788;27;20786;-76
2022/08/03 11:35:23;;;;;;;1.98;1.70;;;;;;;30.63;32.79;94613.19;5120935;27;20204;-78
2022/08/03 11:38:10;;;;;;;2.35;1.63;;;;;;;31.02;32.17;94612.47;5128481;27;20197;-78
2022/08/03 11:40:41;;;;;;;1.77;1.67;;;;;;;30.20;33.25;94614.78;5119753;27;20254;-76
2022/08/03 11:43:09;;;;;;;2.35;1.70;;;;;;;29.94;34.98;94613.28;5130033;27;20212;-76
2022/08/03 11:45:37;;;;;;;2.20;1.80;;;;;;;29.36;34.75;94616.47;5128300;27;20286;-73
2022/08/03 11:48:17;;;;;;;1.80;1.60;;;;;;;28.58;35.42;94624.47;5131089;27;20325;-76
2022/08/03 11:50:45;;;;;;;1.75;1.40;;;;;;;28.51;36.58;94616.31;5129846;27;20228;-81
2022/08/03 11:53:18;;;;;;;1.40;1.27;;;;;;;28.45;36.48;94624.44;5131895;27;20311;-77